createdAt,value
2023-01-09T00:01:18.129Z,973.79
2023-01-09T00:06:22.314Z,973.79
2023-01-09T00:11:26.487Z,973.93
2023-01-09T00:16:30.661Z,974.02
2023-01-09T00:21:34.798Z,974.19
2023-01-09T00:26:38.983Z,974.18
2023-01-09T00:31:43.144Z,974.32
2023-01-09T00:36:47.307Z,974.36
2023-01-09T00:41:51.480Z,974.47
2023-01-09T00:46:55.614Z,974.59
2023-01-09T00:51:59.782Z,974.56
2023-01-09T00:57:03.952Z,974.52
2023-01-09T01:02:08.310Z,974.39
2023-01-09T01:07:10.354Z,974.37
2023-01-09T01:12:14.499Z,974.26
2023-01-09T01:17:16.783Z,974.19
2023-01-09T01:22:20.977Z,974.17
2023-01-09T01:27:25.114Z,974.07
2023-01-09T01:32:29.326Z,974.06
2023-01-09T01:37:33.446Z,974.11
2023-01-09T01:42:37.583Z,974.13
2023-01-09T01:47:41.780Z,974.49
2023-01-09T01:52:45.932Z,974.80
2023-01-09T01:57:50.100Z,975.04
2023-01-09T02:02:54.332Z,975.27
2023-01-09T02:07:58.457Z,975.46
2023-01-09T02:13:02.609Z,975.60
2023-01-09T02:18:06.757Z,975.72
2023-01-09T02:23:10.939Z,975.83
2023-01-09T02:28:15.074Z,975.77
2023-01-09T02:33:19.239Z,975.84
2023-01-09T02:38:23.417Z,975.86
2023-01-09T02:43:27.563Z,975.70
2023-01-09T02:48:31.729Z,975.59
2023-01-09T02:53:35.876Z,975.52
2023-01-09T02:58:40.057Z,975.41
2023-01-09T03:03:42.462Z,975.37
2023-01-09T03:08:46.460Z,975.27
2023-01-09T03:13:48.765Z,975.38
2023-01-09T03:18:52.919Z,975.27
2023-01-09T03:23:57.140Z,975.28
2023-01-09T03:29:01.258Z,975.48
2023-01-09T03:34:05.388Z,975.59
2023-01-09T03:39:09.583Z,975.77
2023-01-09T03:44:13.748Z,975.79
2023-01-09T03:49:17.920Z,975.99
2023-01-09T03:54:22.047Z,976.15
2023-01-09T03:59:26.225Z,976.12
2023-01-09T04:04:30.374Z,976.27
2023-01-09T04:09:34.535Z,976.43
2023-01-09T04:14:38.710Z,976.60
2023-01-09T04:19:42.846Z,976.74
2023-01-09T04:24:47.017Z,977.01
2023-01-09T04:29:51.194Z,977.39
2023-01-09T04:34:55.352Z,977.48
2023-01-09T04:39:59.507Z,977.74
2023-01-09T04:45:03.673Z,977.85
2023-01-09T04:50:07.836Z,977.69
2023-01-09T04:55:12.023Z,977.64
2023-01-09T05:00:14.292Z,977.72
2023-01-09T05:05:18.426Z,977.79
2023-01-09T05:10:22.619Z,977.76
2023-01-09T05:15:26.751Z,977.77
2023-01-09T05:20:30.967Z,977.63
2023-01-09T05:25:35.104Z,977.65
2023-01-09T05:30:39.288Z,977.64
2023-01-09T05:35:43.427Z,977.58
2023-01-09T05:40:47.596Z,977.61
2023-01-09T05:45:51.786Z,977.57
2023-01-09T05:50:55.918Z,977.87
2023-01-09T05:56:00.041Z,978.04
2023-01-09T06:01:04.321Z,978.42
2023-01-09T06:06:08.415Z,978.65
2023-01-09T06:11:12.539Z,978.87
2023-01-09T06:16:16.718Z,979.25
2023-01-09T06:21:20.876Z,979.59
2023-01-09T06:26:25.040Z,979.58
2023-01-09T06:31:29.317Z,979.59
2023-01-09T06:36:33.355Z,979.47
2023-01-09T06:41:37.522Z,979.24
2023-01-09T06:46:39.797Z,979.13
2023-01-09T06:51:43.993Z,978.94
2023-01-09T06:56:46.258Z,978.65
2023-01-09T07:01:50.471Z,978.50
2023-01-09T07:06:54.571Z,978.25
2023-01-09T07:11:58.723Z,978.15
2023-01-09T07:17:03.269Z,978.20
2023-01-09T07:22:07.041Z,978.20
2023-01-09T07:27:11.217Z,978.36
2023-01-09T07:32:15.405Z,978.40
2023-01-09T07:37:19.578Z,978.54
2023-01-09T07:42:23.713Z,978.78
2023-01-09T07:47:27.889Z,978.91
2023-01-09T07:52:32.092Z,979.15
2023-01-09T07:57:36.198Z,979.22
2023-01-09T08:02:40.375Z,979.24
2023-01-09T08:07:44.519Z,979.27
2023-01-09T08:12:48.716Z,979.27
2023-01-09T08:17:52.959Z,979.17
2023-01-09T08:22:57.021Z,978.90
2023-01-09T08:28:01.173Z,978.79
2023-01-09T08:33:05.353Z,978.55
2023-01-09T08:38:09.475Z,978.28
2023-01-09T08:43:11.784Z,978.12
2023-01-09T08:48:15.979Z,977.88
2023-01-09T08:53:18.206Z,977.76
2023-01-09T08:58:22.383Z,977.78
2023-01-09T09:03:26.582Z,977.80
2023-01-09T09:08:30.739Z,977.77
2023-01-09T09:13:34.872Z,977.78
2023-01-09T09:18:39.001Z,977.82
2023-01-09T09:23:43.183Z,977.68
2023-01-09T09:28:47.345Z,977.92
2023-01-09T09:33:51.508Z,977.82
2023-01-09T09:38:55.668Z,977.93
2023-01-09T09:43:59.815Z,977.85
2023-01-09T09:49:05.950Z,977.75
2023-01-09T09:54:08.173Z,977.87
2023-01-09T09:59:12.358Z,977.91
2023-01-09T10:04:16.488Z,978.02
2023-01-09T10:09:20.702Z,977.95
2023-01-09T10:14:24.967Z,977.67
2023-01-09T10:19:28.965Z,977.45
2023-01-09T10:24:33.144Z,977.42
2023-01-09T10:29:37.300Z,977.54
2023-01-09T10:34:41.435Z,977.50
2023-01-09T10:39:43.714Z,977.74
2023-01-09T10:44:47.909Z,978.04
2023-01-09T10:49:50.157Z,978.29
2023-01-09T10:54:54.311Z,978.48
2023-01-09T10:59:58.491Z,978.87
2023-01-09T11:05:02.708Z,979.09
2023-01-09T11:10:06.835Z,979.37
2023-01-09T11:15:11.161Z,979.53
2023-01-09T11:20:15.129Z,979.89
2023-01-09T11:25:19.303Z,979.90
2023-01-09T11:30:23.444Z,979.96
2023-01-09T11:35:27.656Z,980.28
2023-01-09T11:40:31.782Z,980.64
2023-01-09T11:45:35.945Z,980.88
2023-01-09T11:50:40.118Z,981.30
2023-01-09T11:55:44.278Z,981.55
2023-01-09T12:00:46.545Z,981.59
2023-01-09T12:05:50.757Z,981.68
2023-01-09T12:10:54.885Z,981.82
2023-01-09T12:15:59.085Z,981.84
2023-01-09T12:21:03.217Z,981.83
2023-01-09T12:26:07.381Z,981.72
2023-01-09T12:31:11.526Z,981.59
2023-01-09T12:36:13.898Z,981.44
2023-01-09T12:41:17.969Z,981.54
2023-01-09T12:46:20.228Z,981.57
2023-01-09T12:51:24.407Z,981.68
2023-01-09T12:56:28.542Z,981.76
2023-01-09T13:01:32.759Z,982.24
2023-01-09T13:06:38.884Z,982.38
2023-01-09T13:11:42.020Z,982.49
2023-01-09T13:16:45.239Z,982.37
2023-01-09T13:21:49.349Z,981.95
2023-01-09T13:26:53.528Z,981.84
2023-01-09T13:31:57.771Z,981.80
2023-01-09T13:37:01.931Z,981.95
2023-01-09T13:42:06.005Z,982.04
2023-01-09T13:47:10.149Z,982.18
2023-01-09T13:52:14.315Z,982.11
2023-01-09T13:57:18.519Z,982.14
2023-01-09T14:02:22.689Z,982.12
2023-01-09T14:07:26.816Z,982.11
2023-01-09T14:12:30.959Z,982.09
2023-01-09T14:17:35.227Z,982.14
2023-01-09T14:22:50.349Z,982.12
2023-01-09T14:27:43.632Z,981.96
2023-01-09T14:32:45.737Z,981.93
2023-01-09T14:37:49.897Z,981.93
2023-01-09T14:42:54.119Z,981.90
2023-01-09T14:47:56.388Z,982.09
2023-01-09T14:53:00.543Z,982.28
2023-01-09T14:58:04.659Z,982.55
2023-01-09T15:03:08.837Z,982.78
2023-01-09T15:08:13.805Z,983.15
2023-01-09T15:13:17.137Z,983.48
2023-01-09T15:18:21.292Z,983.44
2023-01-09T15:23:25.483Z,983.57
2023-01-09T15:28:29.647Z,983.86
2023-01-09T15:33:33.793Z,983.99
2023-01-09T15:38:37.957Z,984.11
2023-01-09T15:43:42.166Z,984.23
2023-01-09T15:48:46.322Z,984.19
2023-01-09T15:53:50.460Z,984.09
2023-01-09T15:58:54.632Z,984.11
2023-01-09T16:03:58.789Z,984.00
2023-01-09T16:09:02.973Z,983.97
2023-01-09T16:14:07.070Z,984.03
2023-01-09T16:19:11.283Z,984.10
2023-01-09T16:24:15.401Z,984.13
2023-01-09T16:29:19.612Z,984.19
2023-01-09T16:34:21.834Z,984.11
2023-01-09T16:39:26.027Z,983.97
2023-01-09T16:44:28.308Z,983.97
2023-01-09T16:49:32.436Z,983.93
2023-01-09T16:54:36.636Z,983.82
2023-01-09T16:59:40.804Z,983.68
2023-01-09T17:04:44.943Z,983.60
2023-01-09T17:09:49.083Z,983.54
2023-01-09T17:14:53.289Z,983.44
2023-01-09T17:19:57.644Z,983.38
2023-01-09T17:25:01.674Z,983.31
2023-01-09T17:30:18.250Z,983.32
2023-01-09T17:35:09.909Z,983.26
2023-01-09T17:40:14.059Z,983.39
2023-01-09T17:45:18.265Z,983.41
2023-01-09T17:50:22.407Z,983.46
2023-01-09T17:55:26.769Z,983.54
2023-01-09T18:00:30.724Z,983.54
2023-01-09T18:05:34.905Z,983.86
2023-01-09T18:10:39.066Z,984.00
2023-01-09T18:15:43.200Z,984.18
2023-01-09T18:20:47.582Z,984.42
2023-01-09T18:25:51.600Z,984.52
2023-01-09T18:30:53.856Z,984.67
2023-01-09T18:35:58.000Z,984.85
2023-01-09T18:41:00.275Z,985.09
2023-01-09T18:46:04.555Z,985.17
2023-01-09T18:51:08.587Z,985.17
2023-01-09T18:56:12.756Z,985.07
2023-01-09T19:01:17.039Z,984.94
2023-01-09T19:06:21.065Z,984.94
2023-01-09T19:11:25.264Z,984.94
2023-01-09T19:16:29.472Z,984.94
2023-01-09T19:21:33.582Z,984.86
2023-01-09T19:26:37.724Z,984.82
2023-01-09T19:31:41.926Z,984.81
2023-01-09T19:36:46.127Z,984.85
2023-01-09T19:41:50.224Z,984.85
2023-01-09T19:46:54.396Z,985.00
2023-01-09T19:51:58.524Z,985.02
2023-01-09T19:57:03.141Z,985.03
2023-01-09T20:02:06.901Z,985.01
2023-01-09T20:07:11.036Z,985.14
2023-01-09T20:12:15.218Z,985.15
2023-01-09T20:17:19.354Z,985.19
2023-01-09T20:22:23.576Z,985.33
2023-01-09T20:27:25.886Z,985.44
2023-01-09T20:32:30.022Z,985.63
2023-01-09T20:37:32.266Z,985.66
2023-01-09T20:42:36.489Z,985.72
2023-01-09T20:47:40.545Z,985.89
2023-01-09T20:52:44.719Z,985.93
2023-01-09T20:57:48.889Z,986.12
2023-01-09T21:02:53.017Z,986.27
2023-01-09T21:07:57.230Z,986.39
2023-01-09T21:13:01.364Z,986.55
2023-01-09T21:18:05.534Z,986.60
2023-01-09T21:23:09.709Z,986.87
2023-01-09T21:28:13.861Z,986.94
2023-01-09T21:33:18.015Z,986.86
2023-01-09T21:38:22.189Z,986.99
2023-01-09T21:43:26.329Z,987.11
2023-01-09T21:48:30.487Z,987.19
2023-01-09T21:53:34.676Z,987.27
2023-01-09T21:58:38.819Z,987.37
2023-01-09T22:03:43.017Z,987.43
2023-01-09T22:08:47.173Z,987.57
2023-01-09T22:13:51.322Z,987.71
2023-01-09T22:18:55.493Z,987.81
2023-01-09T22:23:57.770Z,987.92
2023-01-09T22:29:01.941Z,988.16
2023-01-09T22:34:04.190Z,988.26
2023-01-09T22:39:08.369Z,988.43
2023-01-09T22:44:12.532Z,988.51
2023-01-09T22:49:16.700Z,988.67
2023-01-09T22:54:20.860Z,988.90
2023-01-09T22:59:27.030Z,989.01
2023-01-09T23:04:29.179Z,989.10
2023-01-09T23:09:33.303Z,989.19
2023-01-09T23:14:37.532Z,989.32
2023-01-09T23:19:41.675Z,989.33
2023-01-09T23:24:45.818Z,989.40
2023-01-09T23:29:50.013Z,989.74
2023-01-09T23:34:54.183Z,989.85
2023-01-09T23:39:58.334Z,989.91
2023-01-09T23:45:02.477Z,990.00
2023-01-09T23:50:06.663Z,990.10
2023-01-09T23:55:10.785Z,990.27
